Hlavní strana
METAR-TAF:

METAR-TAF

Letiště :

Letiště Kodaň

Kodaň, Dánsko

zeměpisná šířka: 55-37N, zeměpisná délka: 012-39E, výška: 5 m

Aktuální stav počasí

Zpráva byla vytvořena před 18 minutami, v 11:50 UTC
Východní vítr 18 kt s nárazy do 28 kt
Teplota 16°C
Vlhkost vzduchu 34%
Tlak 1017 hPa
Viditelnost 10 km a více
Žádná oblačnost pod 1500 m, nevyskytují se cumulonimby.

METAR: EKCH 231150Z 10018G28KT CAVOK 16/M00 Q1017 TEMPO 12022G35KT

Čas: 14:08 (12:08 UTC)

Předpověď počasí

Zpráva byla vytvořena před 1 hodinou a 3 minutami, v 11:05 UTC
Předpověď platná od 23 v 12 UTC do 24 v 12 UTC
Východojihovýchodní vítr 18 kt
Viditelnost 10 km a více
Žádná oblačnost pod 1500 m, nevyskytují se cumulonimby.
Dočasný
od 23 v 12 UTC do 23 v 17 UTC
Východojihovýchodní vítr 25 kt s nárazy do 35 kt

TAF: EKCH 231105Z 2312/2412 11018KT CAVOK TEMPO 2312/2317 11025G35KT

Stav a předpovědi počasí z více než 4 000 letišť (zprávy METAR a TAF).

Červené a žluté tečky na mapě představují dostupné meteorologické stanice.

Když kurzor umístíte na tečku, zobrazí se název stanice.

Pak kliknutím zobrazíte stav a předpověď počasí.

Chcete-li změnit mapu, kliknutím na zelené tlačítko se znaménkem +mapu přiblížíte, kliknutím na zelené tlačítko se znaménkem – mapu oddálíte a kliknutím na zelené šipky přejdete na sousední mapy.


METAR-TAF: